Dallas Love Field
KDAL : now visible

Airfield :











YOU CAN JOIN US ON...

 
LOGIN :

Register | Disclaimer

   EN    FR    IT 

 









Legend :    VFR   Marginal VFR   IFR   Intensive IFR   Very Intensive IFR
Visi :
Ceiling :
>= 8 km
>= 3000ft
5 to 8 km
1000 to 3000 ft
1500m to 5 km
500 to 1000 ft
800 to 1500m
200 to 500 ft
< 800m
< 200 ft
Symbols :   Thunderstorms  Fog  Heavy snow  Heavy precipitations  Wind > 20 kt






- Airport Elevation : 487 ft
- IATA code : DAL


KDAL - Dallas Love Field

CURRENT METAR :
  • 271353Z 35008KT 2SM -RA BR BKN007 OVC012 04/03 A3016 RMK AO2 SLP212 VIS NE 2 1/2 P0001 T00390028 $

EXPIRED METARs :
  • 271330Z 35009KT 2SM -RA BR OVC006 04/02 A3015 RMK AO2 VIS NE 2 1/2 P0001 T00390022
  • 271253Z 34009KT 1 3/4SM -RA BR BKN005 OVC011 04/03 A3014 RMK AO2 DZE34RAB34 SLP207 VIS SE-S 2 P0001 T00390028
  • 271234Z 34008KT 1SM R13L/P6000FT -RA BR OVC005 04/03 A3014 RMK AO2 DZE34RAB34 P0001 T00390028 $
  • 271207Z 35008KT 2SM -DZ BR OVC006 04/03 A3014 RMK AO2 VIS SE 2 1/2 P0000 T00440028 $
  • 271153Z 33007KT 3SM -DZ BR OVC006 04/03 A3013 RMK AO2 SLP202 VIS N-NE 2 1/2 P0000 60002 70019 T00440028 10044 20039 55003 $

TAF KDAL
Valid from the 27 at 12:00 until the 28 at 12:00 UTC


271120Z 2712/2812 36011KT 3SM -DZ BR OVC006
TEMPO 2712/2716 2SM -RADZ OVC004
FM272100 01012KT 5SM -DZ BR OVC008
FM280300 03011KT 2SM -RADZ BR OVC004
KZFW FIR / North America



MET'MAP, your aeronautical weather chart ! - Copyright ORBIFLY December 2007 - Disclaimer

ORBIFLY MET'MAP TEAM :

Programming & Development : Alexandra Zaïnal
Concept & original design : Baudouin d'Aumeries
Assistance for programming : Marc-Olivier Méhu
Technical & hardware support : Manuel Goepfert

Contact : metmap@orbifly.com




SOURCES & CREDITS :

   NOAA       Earth
Advisory